createdAt,value
2022-07-26T00:00:15.521Z,19.00
2022-07-26T00:02:48.295Z,18.90
2022-07-26T00:05:11.438Z,18.90
2022-07-26T00:07:39.017Z,18.80
2022-07-26T00:10:07.415Z,18.60
2022-07-26T00:12:35.028Z,18.60
2022-07-26T00:15:02.611Z,18.50
2022-07-26T00:17:30.953Z,18.40
2022-07-26T00:19:58.566Z,18.40
2022-07-26T00:22:35.101Z,18.40
2022-07-26T00:25:05.480Z,18.30
2022-07-26T00:27:33.044Z,18.50
2022-07-26T00:30:00.621Z,18.70
2022-07-26T00:32:28.213Z,18.60
2022-07-26T00:34:55.787Z,18.50
2022-07-26T00:37:24.141Z,18.20
2022-07-26T00:39:51.744Z,18.20
2022-07-26T00:42:19.317Z,18.10
2022-07-26T00:44:46.891Z,18.30
2022-07-26T00:47:14.485Z,18.20
2022-07-26T00:49:42.051Z,18.10
2022-07-26T00:52:09.623Z,18.00
2022-07-26T00:54:37.997Z,17.80
2022-07-26T00:57:06.337Z,17.80
2022-07-26T00:59:33.901Z,17.80
2022-07-26T01:02:01.675Z,17.70
2022-07-26T01:04:29.078Z,17.70
2022-07-26T01:06:57.412Z,17.60
2022-07-26T01:09:25.015Z,17.60
2022-07-26T01:11:52.591Z,17.60
2022-07-26T01:14:23.167Z,17.80
2022-07-26T01:16:51.746Z,17.80
2022-07-26T01:19:19.316Z,17.70
2022-07-26T01:21:46.891Z,17.60
2022-07-26T01:24:15.264Z,17.50
2022-07-26T01:26:43.604Z,17.50
2022-07-26T01:29:11.182Z,17.50
2022-07-26T01:31:38.819Z,17.40
2022-07-26T01:34:06.585Z,17.40
2022-07-26T01:36:33.921Z,17.60
2022-07-26T01:39:01.505Z,17.60
2022-07-26T01:41:37.549Z,17.50
2022-07-26T01:43:57.451Z,17.60
2022-07-26T01:46:25.100Z,17.60
2022-07-26T01:48:52.679Z,17.60
2022-07-26T01:51:20.203Z,17.70
2022-07-26T01:53:47.796Z,17.60
2022-07-26T01:56:15.370Z,17.50
2022-07-26T01:58:43.732Z,17.30
2022-07-26T02:01:11.349Z,17.30
2022-07-26T02:03:38.905Z,17.20
2022-07-26T02:06:06.474Z,17.10
2022-07-26T02:08:34.081Z,17.10
2022-07-26T02:11:03.484Z,17.00
2022-07-26T02:13:35.992Z,16.90
2022-07-26T02:16:06.413Z,16.90
2022-07-26T02:18:33.946Z,16.80
2022-07-26T02:21:02.289Z,16.80
2022-07-26T02:23:29.891Z,16.80
2022-07-26T02:25:58.242Z,16.90
2022-07-26T02:28:25.818Z,16.90
2022-07-26T02:30:53.442Z,16.90
2022-07-26T02:33:20.986Z,17.10
2022-07-26T02:35:48.560Z,17.00
2022-07-26T02:38:16.165Z,16.90
2022-07-26T02:40:44.506Z,16.80
2022-07-26T02:43:12.071Z,16.80
2022-07-26T02:45:39.664Z,16.80
2022-07-26T02:48:08.016Z,17.00
2022-07-26T02:50:35.592Z,17.00
2022-07-26T02:53:03.208Z,17.00
2022-07-26T02:55:30.777Z,16.90
2022-07-26T02:57:58.344Z,16.90
2022-07-26T03:00:25.946Z,16.80
2022-07-26T03:02:54.396Z,16.80
2022-07-26T03:05:21.881Z,16.80
2022-07-26T03:07:50.253Z,16.80
2022-07-26T03:10:18.871Z,16.80
2022-07-26T03:12:46.445Z,16.80
2022-07-26T03:15:14.049Z,16.80
2022-07-26T03:17:41.624Z,16.80
2022-07-26T03:20:10.235Z,16.80
2022-07-26T03:22:37.845Z,16.80
2022-07-26T03:25:05.409Z,16.80
2022-07-26T03:27:32.978Z,16.80
2022-07-26T03:30:00.725Z,17.10
2022-07-26T03:32:28.303Z,17.10
2022-07-26T03:34:56.659Z,17.30
2022-07-26T03:37:24.234Z,17.20
2022-07-26T03:39:52.576Z,17.20
2022-07-26T03:42:20.161Z,17.20
2022-07-26T03:44:47.754Z,17.10
2022-07-26T03:47:15.330Z,17.10
2022-07-26T03:49:42.903Z,17.20
2022-07-26T03:52:10.506Z,17.20
2022-07-26T03:54:38.139Z,17.10
2022-07-26T03:57:05.723Z,17.10
2022-07-26T03:59:33.317Z,17.30
2022-07-26T04:02:00.982Z,17.20
2022-07-26T04:04:28.506Z,17.40
2022-07-26T04:06:56.454Z,17.40
2022-07-26T04:09:24.026Z,17.30
2022-07-26T04:11:51.606Z,17.20
2022-07-26T04:14:19.962Z,17.10
2022-07-26T04:16:47.557Z,17.10
2022-07-26T04:19:15.882Z,17.10
2022-07-26T04:21:43.485Z,17.00
2022-07-26T04:24:12.074Z,17.30
2022-07-26T04:26:39.394Z,17.30
2022-07-26T04:29:07.348Z,17.30
2022-07-26T04:31:36.537Z,17.30
2022-07-26T04:34:02.507Z,17.40
2022-07-26T04:36:30.887Z,17.80
2022-07-26T04:38:59.239Z,17.60
2022-07-26T04:41:26.813Z,17.60
2022-07-26T04:43:55.481Z,17.70
2022-07-26T04:46:23.071Z,17.60
2022-07-26T04:48:50.677Z,17.60
2022-07-26T04:51:18.253Z,17.50
2022-07-26T04:53:45.836Z,17.40
2022-07-26T04:56:13.429Z,17.40
2022-07-26T04:58:41.025Z,17.30
2022-07-26T05:01:10.449Z,17.30
2022-07-26T05:03:36.319Z,17.30
2022-07-26T05:06:04.682Z,17.20
2022-07-26T05:08:32.256Z,17.20
2022-07-26T05:10:59.829Z,17.20
2022-07-26T05:13:30.625Z,17.20
2022-07-26T05:15:55.916Z,17.20
2022-07-26T05:18:23.506Z,17.20
2022-07-26T05:20:51.880Z,17.20
2022-07-26T05:23:19.453Z,17.20
2022-07-26T05:25:47.028Z,17.30
2022-07-26T05:28:15.852Z,17.30
2022-07-26T05:30:43.465Z,17.30
2022-07-26T05:33:10.981Z,17.30
2022-07-26T05:35:39.363Z,17.50
2022-07-26T05:38:08.045Z,17.50
2022-07-26T05:40:35.281Z,17.50
2022-07-26T05:43:03.857Z,17.50
2022-07-26T05:45:31.488Z,17.50
2022-07-26T05:47:59.782Z,17.70
2022-07-26T05:50:28.282Z,17.60
2022-07-26T05:52:55.857Z,17.60
2022-07-26T05:55:24.210Z,17.70
2022-07-26T05:57:51.824Z,17.70
2022-07-26T06:00:19.395Z,17.70
2022-07-26T06:02:47.027Z,17.70
2022-07-26T06:05:14.938Z,17.60
2022-07-26T06:07:42.513Z,17.60
2022-07-26T06:10:10.314Z,17.60
2022-07-26T06:12:38.695Z,17.80
2022-07-26T06:15:15.291Z,17.70
2022-07-26T06:17:34.648Z,17.70
2022-07-26T06:20:02.236Z,17.70
2022-07-26T06:22:29.818Z,17.70
2022-07-26T06:24:57.393Z,17.70
2022-07-26T06:27:25.962Z,17.70
2022-07-26T06:29:53.526Z,17.70
2022-07-26T06:32:21.099Z,17.90
2022-07-26T06:34:48.712Z,17.90
2022-07-26T06:37:16.297Z,17.80
2022-07-26T06:39:43.871Z,17.80
2022-07-26T06:42:11.496Z,17.80
2022-07-26T06:44:39.059Z,18.00
2022-07-26T06:47:06.656Z,18.20
2022-07-26T06:49:34.265Z,18.20
2022-07-26T06:52:01.819Z,18.20
2022-07-26T06:54:29.395Z,18.20
2022-07-26T06:56:57.009Z,18.20
2022-07-26T06:59:25.364Z,18.30
2022-07-26T07:01:59.620Z,18.30
2022-07-26T07:04:20.602Z,18.30
2022-07-26T07:06:48.122Z,18.40
2022-07-26T07:09:15.716Z,18.40
2022-07-26T07:11:43.349Z,18.40
2022-07-26T07:14:11.141Z,18.40
2022-07-26T07:16:38.616Z,18.40
2022-07-26T07:19:06.146Z,18.50
2022-07-26T07:21:33.744Z,18.70
2022-07-26T07:24:02.087Z,19.20
2022-07-26T07:26:29.706Z,19.20
2022-07-26T07:28:57.290Z,19.20
2022-07-26T07:31:30.115Z,19.30
2022-07-26T07:33:53.747Z,19.50
2022-07-26T07:36:21.618Z,19.40
2022-07-26T07:38:51.937Z,19.40
2022-07-26T07:41:19.807Z,19.40
2022-07-26T07:43:47.393Z,19.50
2022-07-26T07:46:15.825Z,19.60
2022-07-26T07:48:47.382Z,19.60
2022-07-26T07:51:10.961Z,19.70
2022-07-26T07:53:38.551Z,19.80
2022-07-26T07:56:06.159Z,19.60
2022-07-26T07:58:33.749Z,19.50
2022-07-26T08:01:01.419Z,19.30
2022-07-26T08:03:39.001Z,19.20
2022-07-26T08:05:56.505Z,19.10
2022-07-26T08:08:24.088Z,19.10
2022-07-26T08:10:52.768Z,19.10
2022-07-26T08:13:21.447Z,19.10
2022-07-26T08:15:46.852Z,19.30
2022-07-26T08:18:14.457Z,19.30
2022-07-26T08:20:42.807Z,19.30
2022-07-26T08:23:10.404Z,19.30
2022-07-26T08:25:50.133Z,19.30
2022-07-26T08:28:19.728Z,19.40
2022-07-26T08:30:35.519Z,19.40
2022-07-26T08:33:03.123Z,19.40
2022-07-26T08:35:30.717Z,19.30
2022-07-26T08:37:58.284Z,19.30
2022-07-26T08:40:25.885Z,19.30
2022-07-26T08:42:53.470Z,19.30
2022-07-26T08:45:27.188Z,19.30
2022-07-26T08:48:16.809Z,19.40
2022-07-26T08:50:23.132Z,19.40
2022-07-26T08:52:50.717Z,19.40
2022-07-26T08:55:19.148Z,19.60
2022-07-26T08:57:46.723Z,19.60
2022-07-26T09:00:17.275Z,19.70
2022-07-26T09:02:45.740Z,19.80
2022-07-26T09:05:13.324Z,19.90
2022-07-26T09:07:41.665Z,20.10
2022-07-26T09:10:09.792Z,20.10
2022-07-26T09:12:37.374Z,20.30
2022-07-26T09:15:05.107Z,20.40
2022-07-26T09:17:40.234Z,20.70
2022-07-26T09:20:11.149Z,20.80
2022-07-26T09:22:38.747Z,20.80
2022-07-26T09:25:22.211Z,21.10
2022-07-26T09:27:49.810Z,21.10
2022-07-26T09:30:17.379Z,21.20
2022-07-26T09:33:00.786Z,21.50
2022-07-26T09:35:51.079Z,21.50
2022-07-26T09:37:55.938Z,21.50
2022-07-26T09:40:24.314Z,21.70
2022-07-26T09:43:01.341Z,21.70
2022-07-26T09:45:28.964Z,21.70
2022-07-26T09:47:57.298Z,21.70
2022-07-26T09:50:24.946Z,21.70
2022-07-26T09:53:10.557Z,21.70
2022-07-26T09:55:46.939Z,21.90
2022-07-26T09:58:15.339Z,22.10
2022-07-26T10:00:42.932Z,22.10
2022-07-26T10:03:10.575Z,22.10
2022-07-26T10:05:38.107Z,22.10
2022-07-26T10:08:06.453Z,22.20
2022-07-26T10:10:39.807Z,22.20
2022-07-26T10:13:07.403Z,22.20
2022-07-26T10:15:37.610Z,22.40
2022-07-26T10:18:05.898Z,22.50
2022-07-26T10:20:45.330Z,22.50
2022-07-26T10:23:31.151Z,22.60
2022-07-26T10:26:00.300Z,22.90
2022-07-26T10:28:27.105Z,22.90
2022-07-26T10:31:23.360Z,23.00
2022-07-26T10:33:51.665Z,22.90
2022-07-26T10:36:31.271Z,22.90
2022-07-26T10:39:10.555Z,22.90
2022-07-26T10:41:38.178Z,23.10
2022-07-26T10:44:14.798Z,23.20
2022-07-26T10:47:03.898Z,23.40
2022-07-26T10:49:31.479Z,23.40
2022-07-26T10:52:07.946Z,23.50
2022-07-26T10:54:56.877Z,23.50
2022-07-26T10:57:24.509Z,23.60
2022-07-26T10:59:56.429Z,23.70
2022-07-26T11:02:23.166Z,23.90
2022-07-26T11:04:50.775Z,23.80
2022-07-26T11:07:19.128Z,24.00
2022-07-26T11:09:46.701Z,24.00
2022-07-26T11:12:20.333Z,24.10
2022-07-26T11:14:48.560Z,24.40
2022-07-26T11:17:27.629Z,24.50
2022-07-26T11:19:55.993Z,24.50
2022-07-26T11:22:23.558Z,24.50
2022-07-26T11:24:51.503Z,24.50
2022-07-26T11:27:19.086Z,24.50
2022-07-26T11:29:49.231Z,24.40
2022-07-26T11:32:21.975Z,24.40
2022-07-26T11:34:49.104Z,24.60
2022-07-26T11:37:16.677Z,24.60
2022-07-26T11:39:44.311Z,24.70
2022-07-26T11:42:14.327Z,24.70
2022-07-26T11:44:44.890Z,25.00
2022-07-26T11:47:16.565Z,25.20
2022-07-26T11:50:00.538Z,25.50
2022-07-26T11:52:12.494Z,25.50
2022-07-26T11:54:49.685Z,25.70
2022-07-26T11:57:18.036Z,25.70
2022-07-26T11:59:45.666Z,25.60
2022-07-26T12:02:14.012Z,25.60
2022-07-26T12:04:41.750Z,25.60
2022-07-26T12:07:14.585Z,25.70
2022-07-26T12:09:42.209Z,25.80
2022-07-26T12:12:10.560Z,26.10
2022-07-26T12:14:38.127Z,26.00
2022-07-26T12:17:14.384Z,26.10
2022-07-26T12:19:41.964Z,26.30
2022-07-26T12:22:13.015Z,26.40
2022-07-26T12:24:46.479Z,26.40
2022-07-26T12:27:19.709Z,26.40
2022-07-26T12:30:02.307Z,26.30
2022-07-26T12:32:33.591Z,26.10
2022-07-26T12:35:07.379Z,26.10
2022-07-26T12:37:40.306Z,26.00
2022-07-26T12:40:11.702Z,25.90
2022-07-26T12:42:40.046Z,25.80
2022-07-26T12:45:07.717Z,25.80
2022-07-26T12:47:35.726Z,25.70
2022-07-26T12:50:03.328Z,25.70
2022-07-26T12:52:31.613Z,25.70
2022-07-26T12:54:59.226Z,25.60
2022-07-26T12:57:26.799Z,25.70
2022-07-26T12:59:54.374Z,25.70
2022-07-26T13:02:22.372Z,25.70
2022-07-26T13:04:50.013Z,25.70
2022-07-26T13:07:17.510Z,25.80
2022-07-26T13:09:45.902Z,26.10
2022-07-26T13:12:14.226Z,26.10
2022-07-26T13:14:41.798Z,26.10
2022-07-26T13:17:09.527Z,26.10
2022-07-26T13:19:37.007Z,26.20
2022-07-26T13:22:04.589Z,26.40
2022-07-26T13:24:32.193Z,26.30
2022-07-26T13:27:00.379Z,26.30
2022-07-26T13:29:27.345Z,26.40
2022-07-26T13:31:54.954Z,26.40
2022-07-26T13:34:22.529Z,26.30
2022-07-26T13:36:50.096Z,26.30
2022-07-26T13:39:17.707Z,26.40
2022-07-26T13:41:45.332Z,26.40
2022-07-26T13:44:13.436Z,26.40
2022-07-26T13:46:40.539Z,26.60
2022-07-26T13:49:08.909Z,26.60
2022-07-26T13:51:54.405Z,26.60
2022-07-26T13:54:21.988Z,26.60
2022-07-26T13:56:49.581Z,26.60
2022-07-26T13:59:17.973Z,26.50
2022-07-26T14:01:45.681Z,26.50
2022-07-26T14:04:13.721Z,26.50
2022-07-26T14:06:40.734Z,26.50
2022-07-26T14:09:10.920Z,26.50
2022-07-26T14:11:36.669Z,26.50
2022-07-26T14:14:04.613Z,26.50
2022-07-26T14:16:32.242Z,26.40
2022-07-26T14:18:59.767Z,26.40
2022-07-26T14:21:28.149Z,26.60
2022-07-26T14:23:56.501Z,26.70
2022-07-26T14:26:24.125Z,26.70
2022-07-26T14:28:52.457Z,26.80
2022-07-26T14:31:20.834Z,26.90
2022-07-26T14:33:48.379Z,26.90
2022-07-26T14:36:15.986Z,27.10
2022-07-26T14:38:43.563Z,27.50
2022-07-26T14:41:11.134Z,27.70
2022-07-26T14:43:38.748Z,27.90
2022-07-26T14:46:06.443Z,28.00
2022-07-26T14:48:53.436Z,28.00
2022-07-26T14:51:09.955Z,28.10
2022-07-26T14:53:29.135Z,28.10
2022-07-26T14:55:56.717Z,28.20
2022-07-26T14:58:24.322Z,28.40
2022-07-26T15:00:51.930Z,28.70
2022-07-26T15:03:19.478Z,28.80
2022-07-26T15:05:47.449Z,28.90
2022-07-26T15:08:15.021Z,29.00
2022-07-26T15:10:42.596Z,29.20
2022-07-26T15:13:10.999Z,29.20
2022-07-26T15:15:38.571Z,29.20
2022-07-26T15:18:06.150Z,29.20
2022-07-26T15:20:33.759Z,29.10
2022-07-26T15:23:02.105Z,28.70
2022-07-26T15:25:29.685Z,28.70
2022-07-26T15:27:58.066Z,28.20
2022-07-26T15:30:26.438Z,28.00
2022-07-26T15:32:53.993Z,28.00
2022-07-26T15:35:21.606Z,27.90
2022-07-26T15:37:49.190Z,27.90
2022-07-26T15:40:16.768Z,27.80
2022-07-26T15:42:44.440Z,27.80
2022-07-26T15:45:11.995Z,27.80
2022-07-26T15:48:00.947Z,27.90
2022-07-26T15:50:08.135Z,28.10
2022-07-26T15:52:38.655Z,28.10
2022-07-26T15:55:09.121Z,28.00
2022-07-26T15:57:36.737Z,28.10
2022-07-26T16:00:11.016Z,28.10
2022-07-26T16:02:34.572Z,27.90
2022-07-26T16:05:02.923Z,27.80
2022-07-26T16:07:31.275Z,27.60
2022-07-26T16:09:58.859Z,27.60
2022-07-26T16:12:27.240Z,27.50
2022-07-26T16:14:55.602Z,27.40
2022-07-26T16:17:23.176Z,27.40
2022-07-26T16:19:52.453Z,27.30
2022-07-26T16:22:20.027Z,27.30
2022-07-26T16:24:47.601Z,27.20
2022-07-26T16:27:15.981Z,27.00
2022-07-26T16:29:46.784Z,26.80
2022-07-26T16:32:12.009Z,26.80
2022-07-26T16:34:39.503Z,26.60
2022-07-26T16:37:07.088Z,26.70
2022-07-26T16:39:34.712Z,26.90
2022-07-26T16:42:06.739Z,27.30
2022-07-26T16:44:30.696Z,27.30
2022-07-26T16:46:58.296Z,27.20
2022-07-26T16:49:25.988Z,27.10
2022-07-26T16:51:53.458Z,26.90
2022-07-26T16:54:21.031Z,26.70
2022-07-26T16:56:48.645Z,26.50
2022-07-26T16:59:16.831Z,26.40
2022-07-26T17:01:43.848Z,26.20
2022-07-26T17:04:11.387Z,26.10
2022-07-26T17:06:38.963Z,25.90
2022-07-26T17:09:06.546Z,25.80
2022-07-26T17:11:34.158Z,25.70
2022-07-26T17:14:01.742Z,25.50
2022-07-26T17:16:30.175Z,25.30
2022-07-26T17:18:57.698Z,25.30
2022-07-26T17:21:26.050Z,25.10
2022-07-26T17:23:53.624Z,25.10
2022-07-26T17:26:22.005Z,24.90
2022-07-26T17:28:50.350Z,24.90
2022-07-26T17:31:17.923Z,24.80
2022-07-26T17:33:45.526Z,24.80
2022-07-26T17:36:24.803Z,24.80
2022-07-26T17:38:52.412Z,24.90
2022-07-26T17:41:19.985Z,24.90
2022-07-26T17:43:47.558Z,25.00
2022-07-26T17:46:16.149Z,25.00
2022-07-26T17:48:45.223Z,25.00
2022-07-26T17:51:12.723Z,25.00
2022-07-26T17:53:40.403Z,25.00
2022-07-26T17:56:08.011Z,24.90
2022-07-26T17:58:35.593Z,24.90
2022-07-26T18:01:03.207Z,24.80
2022-07-26T18:03:30.796Z,24.70
2022-07-26T18:05:58.432Z,24.90
2022-07-26T18:08:26.874Z,24.80
2022-07-26T18:10:54.449Z,24.70
2022-07-26T18:13:22.805Z,24.40
2022-07-26T18:15:50.449Z,24.30
2022-07-26T18:18:17.977Z,24.20
2022-07-26T18:20:45.562Z,24.40
2022-07-26T18:23:14.071Z,24.20
2022-07-26T18:25:41.646Z,24.10
2022-07-26T18:28:09.998Z,23.90
2022-07-26T18:30:37.607Z,23.80
2022-07-26T18:33:05.180Z,23.70
2022-07-26T18:35:32.765Z,23.70
2022-07-26T18:38:01.265Z,23.60
2022-07-26T18:40:28.840Z,23.50
2022-07-26T18:42:57.194Z,23.70
2022-07-26T18:45:24.802Z,23.70
2022-07-26T18:47:53.146Z,23.60
2022-07-26T18:50:20.720Z,23.60
2022-07-26T18:52:49.102Z,23.70
2022-07-26T18:55:17.444Z,23.70
2022-07-26T18:57:45.008Z,23.70
2022-07-26T19:00:15.704Z,23.60
2022-07-26T19:02:43.287Z,23.50
2022-07-26T19:05:10.862Z,23.30
2022-07-26T19:07:38.479Z,23.30
2022-07-26T19:10:06.129Z,23.20
2022-07-26T19:12:33.704Z,23.10
2022-07-26T19:15:01.316Z,23.00
2022-07-26T19:17:30.359Z,23.00
2022-07-26T19:19:57.232Z,22.80
2022-07-26T19:22:24.846Z,22.80
2022-07-26T19:24:52.419Z,22.70
2022-07-26T19:27:20.004Z,22.70
2022-07-26T19:29:47.623Z,22.50
2022-07-26T19:32:15.181Z,22.50
2022-07-26T19:34:42.759Z,22.30
2022-07-26T19:37:10.625Z,22.20
2022-07-26T19:39:38.190Z,22.10
2022-07-26T19:42:05.764Z,22.00
2022-07-26T19:44:33.416Z,21.90
2022-07-26T19:47:00.981Z,21.90
2022-07-26T19:49:28.625Z,21.80
2022-07-26T19:51:56.180Z,21.80
2022-07-26T19:54:23.752Z,21.70
2022-07-26T19:56:51.337Z,21.80
2022-07-26T19:59:23.387Z,21.80
2022-07-26T20:01:47.103Z,21.60
2022-07-26T20:04:14.611Z,21.50
2022-07-26T20:06:42.480Z,21.40
2022-07-26T20:09:10.201Z,21.30
2022-07-26T20:11:37.638Z,21.20
2022-07-26T20:14:06.009Z,21.20
2022-07-26T20:16:33.634Z,21.20
2022-07-26T20:19:01.928Z,21.00
2022-07-26T20:21:29.530Z,21.00
2022-07-26T20:23:57.882Z,21.00
2022-07-26T20:26:25.459Z,21.00
2022-07-26T20:28:54.222Z,20.90
2022-07-26T20:31:21.844Z,20.90
2022-07-26T20:33:49.361Z,20.70
2022-07-26T20:36:18.641Z,20.80
2022-07-26T20:38:51.387Z,20.80
2022-07-26T20:41:14.553Z,20.60
2022-07-26T20:43:42.157Z,20.60
2022-07-26T20:46:10.520Z,20.40
2022-07-26T20:48:38.160Z,20.30
2022-07-26T20:51:05.687Z,20.20
2022-07-26T20:53:33.261Z,20.10
2022-07-26T20:56:00.835Z,20.00
2022-07-26T20:58:28.450Z,19.90
2022-07-26T21:00:56.846Z,19.80
2022-07-26T21:03:24.365Z,19.80
2022-07-26T21:05:51.980Z,19.80
2022-07-26T21:08:19.564Z,20.00
2022-07-26T21:10:47.138Z,19.90
2022-07-26T21:13:15.107Z,19.90
2022-07-26T21:15:42.670Z,19.80
2022-07-26T21:18:10.243Z,19.80
2022-07-26T21:20:38.636Z,19.70
2022-07-26T21:23:16.787Z,19.70
2022-07-26T21:25:34.552Z,19.70
2022-07-26T21:28:03.319Z,19.90
2022-07-26T21:30:30.892Z,19.90
2022-07-26T21:32:58.465Z,19.90
2022-07-26T21:35:27.014Z,20.10
2022-07-26T21:37:54.598Z,20.00
2022-07-26T21:40:22.173Z,19.90
2022-07-26T21:42:50.555Z,20.00
2022-07-26T21:45:18.898Z,19.80
2022-07-26T21:47:46.470Z,19.80
2022-07-26T21:50:14.419Z,19.70
2022-07-26T21:52:42.004Z,19.70
2022-07-26T21:55:09.586Z,19.60
2022-07-26T21:57:39.159Z,19.50
2022-07-26T22:00:06.813Z,19.50
2022-07-26T22:02:34.476Z,19.50
2022-07-26T22:05:02.349Z,19.40
2022-07-26T22:07:29.919Z,19.40
2022-07-26T22:09:58.265Z,19.50
2022-07-26T22:12:25.883Z,19.50
2022-07-26T22:14:53.458Z,19.50
2022-07-26T22:17:21.043Z,19.40
2022-07-26T22:19:48.646Z,19.30
2022-07-26T22:22:16.230Z,19.30
2022-07-26T22:24:43.804Z,19.20
2022-07-26T22:27:11.467Z,19.20
2022-07-26T22:29:39.060Z,19.20
2022-07-26T22:32:06.704Z,19.10
2022-07-26T22:34:34.267Z,19.10
2022-07-26T22:37:01.886Z,19.10
2022-07-26T22:39:30.215Z,19.30
2022-07-26T22:42:14.905Z,19.30
2022-07-26T22:44:25.548Z,19.30
2022-07-26T22:46:53.134Z,19.30
2022-07-26T22:49:22.722Z,19.20
2022-07-26T22:51:50.280Z,19.10
2022-07-26T22:54:18.633Z,19.30
2022-07-26T22:56:47.419Z,19.30
2022-07-26T22:59:15.377Z,19.30
2022-07-26T23:01:42.577Z,19.20
2022-07-26T23:04:11.011Z,19.10
2022-07-26T23:06:39.299Z,19.10
2022-07-26T23:09:06.875Z,19.10
2022-07-26T23:11:34.458Z,19.10
2022-07-26T23:14:02.790Z,19.20
2022-07-26T23:16:30.383Z,19.20
2022-07-26T23:18:57.967Z,19.10
2022-07-26T23:21:25.543Z,19.10
2022-07-26T23:23:53.122Z,19.30
2022-07-26T23:26:20.709Z,19.20
2022-07-26T23:28:48.284Z,19.20
2022-07-26T23:31:16.705Z,19.10
2022-07-26T23:33:51.694Z,19.10
2022-07-26T23:36:12.562Z,19.00
2022-07-26T23:38:40.147Z,19.00
2022-07-26T23:41:07.902Z,19.00
2022-07-26T23:43:35.481Z,19.00
2022-07-26T23:46:03.039Z,19.00
2022-07-26T23:48:31.488Z,19.20
2022-07-26T23:50:58.981Z,19.10
2022-07-26T23:53:27.457Z,19.00
2022-07-26T23:55:54.924Z,19.00
2022-07-26T23:58:23.262Z,18.80
